createdAt,value
2023-02-16T00:00:49.431Z,975.92
2023-02-16T00:01:49.379Z,975.80
2023-02-16T00:02:49.350Z,975.93
2023-02-16T00:03:49.320Z,975.99
2023-02-16T00:04:49.201Z,975.93
2023-02-16T00:05:49.151Z,975.80
2023-02-16T00:06:49.084Z,975.89
2023-02-16T00:07:49.011Z,975.88
2023-02-16T00:08:49.008Z,975.77
2023-02-16T00:09:48.903Z,975.72
2023-02-16T00:10:48.846Z,975.84
2023-02-16T00:11:48.762Z,975.93
2023-02-16T00:12:48.722Z,975.86
2023-02-16T00:13:48.685Z,975.81
2023-02-16T00:14:48.598Z,975.90
2023-02-16T00:15:48.633Z,975.87
2023-02-16T00:16:48.458Z,975.78
2023-02-16T00:17:48.424Z,975.83
2023-02-16T00:18:48.341Z,975.84
2023-02-16T00:19:48.295Z,975.84
2023-02-16T00:20:48.221Z,975.86
2023-02-16T00:21:48.177Z,975.85
2023-02-16T00:22:48.143Z,975.85
2023-02-16T00:23:48.040Z,975.83
2023-02-16T00:24:48.037Z,975.87
2023-02-16T00:25:47.927Z,975.81
2023-02-16T00:26:47.868Z,975.87
2023-02-16T00:27:47.793Z,975.86
2023-02-16T00:28:47.746Z,975.89
2023-02-16T00:29:47.692Z,975.85
2023-02-16T00:30:47.673Z,975.87
2023-02-16T00:31:47.692Z,975.91
2023-02-16T00:32:47.495Z,975.85
2023-02-16T00:33:47.487Z,975.82
2023-02-16T00:34:47.405Z,975.84
2023-02-16T00:35:47.313Z,975.85
2023-02-16T00:36:47.247Z,975.77
2023-02-16T00:37:47.169Z,975.82
2023-02-16T00:38:47.136Z,975.81
2023-02-16T00:39:47.121Z,975.78
2023-02-16T00:40:46.987Z,975.78
2023-02-16T00:41:46.944Z,975.80
2023-02-16T00:42:46.908Z,975.75
2023-02-16T00:43:46.872Z,975.75
2023-02-16T00:44:46.799Z,975.84
2023-02-16T00:45:46.709Z,975.84
2023-02-16T00:46:46.645Z,975.80
2023-02-16T00:47:46.594Z,975.78
2023-02-16T00:48:46.499Z,975.82
2023-02-16T00:49:46.491Z,975.78
2023-02-16T00:50:46.394Z,975.76
2023-02-16T00:51:46.372Z,975.75
2023-02-16T00:52:46.307Z,975.79
2023-02-16T00:53:46.235Z,975.70
2023-02-16T00:54:46.167Z,975.73
2023-02-16T00:55:46.092Z,975.72
2023-02-16T00:56:46.044Z,975.67
2023-02-16T00:57:45.961Z,975.63
2023-02-16T00:58:45.895Z,975.61
2023-02-16T00:59:45.881Z,975.58
2023-02-16T01:00:45.814Z,975.58
2023-02-16T01:01:45.757Z,975.56
2023-02-16T01:02:45.669Z,975.58
2023-02-16T01:03:45.613Z,975.54
2023-02-16T01:04:45.595Z,975.55
2023-02-16T01:05:45.492Z,975.58
2023-02-16T01:06:45.418Z,975.52
2023-02-16T01:07:45.366Z,975.51
2023-02-16T01:08:45.321Z,975.50
2023-02-16T01:09:45.238Z,975.50
2023-02-16T01:10:45.221Z,975.51
2023-02-16T01:11:45.111Z,975.51
2023-02-16T01:12:45.046Z,975.51
2023-02-16T01:13:45.006Z,975.48
2023-02-16T01:14:44.922Z,975.48
2023-02-16T01:15:44.926Z,975.42
2023-02-16T01:16:44.826Z,975.41
2023-02-16T01:17:44.744Z,975.38
2023-02-16T01:18:44.699Z,975.37
2023-02-16T01:19:44.636Z,975.33
2023-02-16T01:20:44.552Z,975.33
2023-02-16T01:21:44.532Z,975.27
2023-02-16T01:22:44.447Z,975.27
2023-02-16T01:23:44.418Z,975.30
2023-02-16T01:24:44.304Z,975.26
2023-02-16T01:25:44.266Z,975.24
2023-02-16T01:26:44.216Z,975.23
2023-02-16T01:27:44.154Z,975.26
2023-02-16T01:28:44.109Z,975.24
2023-02-16T01:29:44.038Z,975.31
2023-02-16T01:30:43.958Z,975.25
2023-02-16T01:31:44.052Z,975.26
2023-02-16T01:32:43.835Z,975.24
2023-02-16T01:33:43.803Z,975.20
2023-02-16T01:34:43.700Z,975.18
2023-02-16T01:35:43.655Z,975.21
2023-02-16T01:36:43.626Z,975.23
2023-02-16T01:37:43.531Z,975.17
2023-02-16T01:38:43.471Z,975.15
2023-02-16T01:39:43.428Z,975.15
2023-02-16T01:40:43.361Z,975.18
2023-02-16T01:41:43.306Z,975.13
2023-02-16T01:42:43.232Z,975.11
2023-02-16T01:43:43.166Z,975.17
2023-02-16T01:44:43.116Z,975.16
2023-02-16T01:45:43.134Z,975.15
2023-02-16T01:46:43.120Z,975.15
2023-02-16T01:47:42.924Z,975.14
2023-02-16T01:48:42.865Z,975.10
2023-02-16T01:49:42.833Z,975.14
2023-02-16T01:50:42.737Z,975.12
2023-02-16T01:51:42.681Z,975.08
2023-02-16T01:52:42.642Z,975.10
2023-02-16T01:53:42.672Z,975.13
2023-02-16T01:54:42.499Z,975.10
2023-02-16T01:55:42.445Z,975.14
2023-02-16T01:56:42.411Z,975.11
2023-02-16T01:57:42.323Z,975.08
2023-02-16T01:58:42.255Z,975.17
2023-02-16T01:59:42.225Z,975.12
2023-02-16T02:00:42.129Z,975.08
2023-02-16T02:01:42.153Z,975.10
2023-02-16T02:02:42.051Z,975.20
2023-02-16T02:03:41.947Z,975.18
2023-02-16T02:04:41.897Z,975.30
2023-02-16T02:05:41.798Z,975.16
2023-02-16T02:06:41.766Z,975.15
2023-02-16T02:07:41.698Z,975.09
2023-02-16T02:08:41.639Z,975.11
2023-02-16T02:09:41.608Z,975.10
2023-02-16T02:10:41.556Z,975.11
2023-02-16T02:11:41.446Z,975.19
2023-02-16T02:12:41.402Z,975.15
2023-02-16T02:13:41.327Z,975.07
2023-02-16T02:14:41.264Z,975.13
2023-02-16T02:15:41.246Z,975.16
2023-02-16T02:16:41.126Z,975.05
2023-02-16T02:17:41.095Z,975.06
2023-02-16T02:18:41.013Z,975.02
2023-02-16T02:19:40.966Z,975.03
2023-02-16T02:20:40.917Z,974.98
2023-02-16T02:21:40.844Z,975.03
2023-02-16T02:22:40.808Z,974.97
2023-02-16T02:23:40.720Z,975.00
2023-02-16T02:24:40.652Z,975.02
2023-02-16T02:25:40.626Z,975.02
2023-02-16T02:26:40.544Z,975.02
2023-02-16T02:27:40.497Z,975.01
2023-02-16T02:28:40.401Z,974.99
2023-02-16T02:29:40.373Z,975.01
2023-02-16T02:30:40.318Z,975.00
2023-02-16T02:31:40.388Z,975.00
2023-02-16T02:32:40.167Z,974.97
2023-02-16T02:33:40.093Z,974.91
2023-02-16T02:34:40.051Z,974.94
2023-02-16T02:35:39.965Z,974.95
2023-02-16T02:36:39.942Z,974.96
2023-02-16T02:37:39.918Z,974.94
2023-02-16T02:38:39.797Z,974.91
2023-02-16T02:39:39.746Z,974.88
2023-02-16T02:40:39.680Z,974.85
2023-02-16T02:41:39.627Z,974.89
2023-02-16T02:42:39.549Z,974.85
2023-02-16T02:43:39.525Z,974.83
2023-02-16T02:44:39.438Z,974.84
2023-02-16T02:45:39.399Z,974.84
2023-02-16T02:46:39.369Z,974.82
2023-02-16T02:47:39.238Z,974.81
2023-02-16T02:48:39.188Z,974.86
2023-02-16T02:49:39.117Z,974.78
2023-02-16T02:50:39.094Z,974.85
2023-02-16T02:51:39.001Z,974.81
2023-02-16T02:52:38.929Z,974.83
2023-02-16T02:53:38.870Z,974.81
2023-02-16T02:54:38.863Z,974.78
2023-02-16T02:55:38.790Z,974.77
2023-02-16T02:56:38.740Z,974.76
2023-02-16T02:57:38.635Z,974.77
2023-02-16T02:58:38.570Z,974.72
2023-02-16T02:59:38.505Z,974.68
2023-02-16T03:00:38.550Z,974.72
2023-02-16T03:01:38.436Z,974.68
2023-02-16T03:02:38.338Z,974.74
2023-02-16T03:03:38.281Z,974.74
2023-02-16T03:04:38.209Z,974.73
2023-02-16T03:05:38.138Z,974.73
2023-02-16T03:06:38.114Z,974.70
2023-02-16T03:07:38.002Z,974.73
2023-02-16T03:08:37.947Z,974.68
2023-02-16T03:09:37.938Z,974.70
2023-02-16T03:10:37.870Z,974.67
2023-02-16T03:11:37.803Z,974.64
2023-02-16T03:12:37.718Z,974.67
2023-02-16T03:13:37.666Z,974.63
2023-02-16T03:14:37.608Z,974.63
2023-02-16T03:15:37.561Z,974.65
2023-02-16T03:16:37.561Z,974.66
2023-02-16T03:17:37.418Z,974.69
2023-02-16T03:18:37.361Z,974.73
2023-02-16T03:19:37.298Z,974.71
2023-02-16T03:20:37.260Z,974.71
2023-02-16T03:21:37.170Z,974.73
2023-02-16T03:22:37.087Z,974.74
2023-02-16T03:23:37.023Z,974.77
2023-02-16T03:24:37.002Z,974.77
2023-02-16T03:25:36.896Z,974.79
2023-02-16T03:26:36.900Z,974.83
2023-02-16T03:27:36.804Z,974.79
2023-02-16T03:28:36.783Z,974.79
2023-02-16T03:29:36.675Z,974.83
2023-02-16T03:30:36.824Z,974.76
2023-02-16T03:31:36.694Z,974.76
2023-02-16T03:32:36.489Z,974.83
2023-02-16T03:33:36.438Z,974.80
2023-02-16T03:34:36.371Z,974.82
2023-02-16T03:35:36.337Z,974.93
2023-02-16T03:36:36.233Z,974.88
2023-02-16T03:37:36.212Z,974.87
2023-02-16T03:38:36.132Z,974.87
2023-02-16T03:39:36.061Z,974.86
2023-02-16T03:40:35.982Z,974.82
2023-02-16T03:41:35.921Z,974.79
2023-02-16T03:42:35.870Z,974.79
2023-02-16T03:43:35.836Z,974.74
2023-02-16T03:44:35.747Z,974.75
2023-02-16T03:45:35.748Z,974.78
2023-02-16T03:46:35.643Z,974.71
2023-02-16T03:47:35.565Z,974.71
2023-02-16T03:48:35.510Z,974.68
2023-02-16T03:49:35.468Z,974.71
2023-02-16T03:50:35.388Z,974.73
2023-02-16T03:51:35.326Z,974.74
2023-02-16T03:52:35.233Z,974.77
2023-02-16T03:53:35.189Z,974.78
2023-02-16T03:54:35.143Z,974.83
2023-02-16T03:55:35.095Z,974.85
2023-02-16T03:56:35.050Z,974.87
2023-02-16T03:57:34.962Z,974.91
2023-02-16T03:58:34.902Z,974.96
2023-02-16T03:59:34.814Z,974.88
2023-02-16T04:00:34.808Z,974.93
2023-02-16T04:01:34.724Z,974.94
2023-02-16T04:02:34.644Z,974.92
2023-02-16T04:03:34.581Z,974.98
2023-02-16T04:04:34.574Z,974.99
2023-02-16T04:05:34.463Z,974.92
2023-02-16T04:06:34.405Z,974.93
2023-02-16T04:07:34.352Z,974.90
2023-02-16T04:08:34.280Z,974.93
2023-02-16T04:09:34.209Z,974.98
2023-02-16T04:10:34.178Z,974.89
2023-02-16T04:11:34.111Z,974.91
2023-02-16T04:12:34.040Z,974.89
2023-02-16T04:13:33.986Z,974.88
2023-02-16T04:14:33.925Z,974.95
2023-02-16T04:15:33.834Z,974.93
2023-02-16T04:16:33.870Z,974.93
2023-02-16T04:17:33.723Z,974.93
2023-02-16T04:18:33.662Z,974.94
2023-02-16T04:19:33.638Z,974.90
2023-02-16T04:20:33.548Z,974.84
2023-02-16T04:21:33.515Z,974.89
2023-02-16T04:22:33.399Z,974.93
2023-02-16T04:23:33.353Z,974.93
2023-02-16T04:24:33.310Z,974.86
2023-02-16T04:25:33.436Z,974.86
2023-02-16T04:26:33.194Z,974.88
2023-02-16T04:27:33.149Z,974.81
2023-02-16T04:28:33.054Z,974.85
2023-02-16T04:29:33.001Z,974.86
2023-02-16T04:30:33.155Z,974.85
2023-02-16T04:31:32.993Z,974.86
2023-02-16T04:32:32.810Z,974.81
2023-02-16T04:33:32.739Z,974.87
2023-02-16T04:34:32.720Z,974.79
2023-02-16T04:35:32.646Z,974.81
2023-02-16T04:36:32.569Z,974.81
2023-02-16T04:37:32.489Z,974.89
2023-02-16T04:38:32.457Z,974.91
2023-02-16T04:39:32.372Z,974.91
2023-02-16T04:40:32.302Z,974.97
2023-02-16T04:41:32.260Z,974.94
2023-02-16T04:42:32.177Z,974.90
2023-02-16T04:43:32.153Z,974.92
2023-02-16T04:44:32.089Z,974.88
2023-02-16T04:45:32.044Z,974.80
2023-02-16T04:46:31.952Z,974.86
2023-02-16T04:47:31.876Z,974.79
2023-02-16T04:48:31.826Z,974.74
2023-02-16T04:49:31.750Z,974.77
2023-02-16T04:50:31.704Z,974.78
2023-02-16T04:51:31.645Z,974.84
2023-02-16T04:52:31.564Z,974.90
2023-02-16T04:53:31.488Z,974.90
2023-02-16T04:54:31.457Z,974.89
2023-02-16T04:55:31.406Z,974.92
2023-02-16T04:56:31.327Z,974.91
2023-02-16T04:57:31.263Z,974.86
2023-02-16T04:58:31.237Z,974.83
2023-02-16T04:59:31.124Z,974.81
2023-02-16T05:00:31.098Z,974.76
2023-02-16T05:01:31.078Z,974.85
2023-02-16T05:02:30.941Z,974.77
2023-02-16T05:03:30.909Z,974.86
2023-02-16T05:04:30.879Z,974.81
2023-02-16T05:05:30.773Z,974.76
2023-02-16T05:06:30.726Z,974.75
2023-02-16T05:07:30.648Z,974.78
2023-02-16T05:08:30.597Z,974.80
2023-02-16T05:09:30.549Z,974.80
2023-02-16T05:10:30.454Z,974.75
2023-02-16T05:11:30.445Z,974.84
2023-02-16T05:12:30.337Z,974.76
2023-02-16T05:13:30.272Z,974.82
2023-02-16T05:14:30.215Z,974.83
2023-02-16T05:15:30.181Z,974.74
2023-02-16T05:16:30.102Z,974.76
2023-02-16T05:17:30.057Z,974.77
2023-02-16T05:18:29.961Z,974.75
2023-02-16T05:19:29.901Z,974.76
2023-02-16T05:20:29.832Z,974.73
2023-02-16T05:21:29.764Z,974.91
2023-02-16T05:22:29.747Z,974.79
2023-02-16T05:23:29.663Z,974.82
2023-02-16T05:24:29.590Z,974.86
2023-02-16T05:25:29.545Z,974.81
2023-02-16T05:26:29.487Z,974.75
2023-02-16T05:27:29.428Z,974.78
2023-02-16T05:28:29.423Z,974.78
2023-02-16T05:29:29.308Z,974.82
2023-02-16T05:30:29.230Z,974.82
2023-02-16T05:31:29.324Z,974.82
2023-02-16T05:32:29.103Z,974.87
2023-02-16T05:33:29.000Z,974.90
2023-02-16T05:34:28.982Z,974.93
2023-02-16T05:35:28.953Z,974.95
2023-02-16T05:36:28.888Z,975.05
2023-02-16T05:37:28.785Z,975.02
2023-02-16T05:38:28.727Z,975.03
2023-02-16T05:39:28.661Z,975.04
2023-02-16T05:40:28.589Z,975.06
2023-02-16T05:41:28.544Z,975.06
2023-02-16T05:42:28.509Z,975.07
2023-02-16T05:43:28.414Z,975.09
2023-02-16T05:44:28.346Z,975.12
2023-02-16T05:45:28.296Z,975.15
2023-02-16T05:46:28.238Z,975.13
2023-02-16T05:47:28.200Z,975.15
2023-02-16T05:48:28.099Z,975.17
2023-02-16T05:49:28.044Z,975.23
2023-02-16T05:50:27.999Z,975.21
2023-02-16T05:51:27.932Z,975.27
2023-02-16T05:52:27.870Z,975.31
2023-02-16T05:53:27.809Z,975.32
2023-02-16T05:54:27.770Z,975.30
2023-02-16T05:55:27.680Z,975.27
2023-02-16T05:56:27.620Z,975.31
2023-02-16T05:57:27.587Z,975.32
2023-02-16T05:58:27.500Z,975.31
2023-02-16T05:59:27.449Z,975.28
2023-02-16T06:00:27.353Z,975.31
2023-02-16T06:01:27.323Z,975.31
2023-02-16T06:02:27.289Z,975.30
2023-02-16T06:03:27.184Z,975.25
2023-02-16T06:04:27.184Z,975.23
2023-02-16T06:05:27.061Z,975.26
2023-02-16T06:06:26.996Z,975.23
2023-02-16T06:07:26.905Z,975.22
2023-02-16T06:08:26.870Z,975.27
2023-02-16T06:09:26.834Z,975.26
2023-02-16T06:10:26.727Z,975.31
2023-02-16T06:11:26.688Z,975.24
2023-02-16T06:12:26.663Z,975.22
2023-02-16T06:13:26.541Z,975.19
2023-02-16T06:14:26.498Z,975.22
2023-02-16T06:15:26.427Z,975.22
2023-02-16T06:16:26.438Z,975.19
2023-02-16T06:17:26.307Z,975.23
2023-02-16T06:18:26.282Z,975.26
2023-02-16T06:19:26.165Z,975.21
2023-02-16T06:20:26.117Z,975.22
2023-02-16T06:21:26.069Z,975.22
2023-02-16T06:22:26.018Z,975.31
2023-02-16T06:23:25.942Z,975.26
2023-02-16T06:24:25.932Z,975.28
2023-02-16T06:25:25.827Z,975.26
2023-02-16T06:26:25.781Z,975.18
2023-02-16T06:27:25.682Z,975.22
2023-02-16T06:28:25.627Z,975.26
2023-02-16T06:29:25.587Z,975.23
2023-02-16T06:30:25.632Z,975.19
2023-02-16T06:31:25.615Z,975.20
2023-02-16T06:32:25.590Z,975.13
2023-02-16T06:33:25.311Z,975.20
2023-02-16T06:34:25.231Z,975.19
2023-02-16T06:35:25.170Z,975.17
2023-02-16T06:36:25.165Z,975.20
2023-02-16T06:37:25.100Z,975.09
2023-02-16T06:38:25.017Z,975.14
2023-02-16T06:39:24.922Z,975.16
2023-02-16T06:40:24.905Z,975.20
2023-02-16T06:41:24.836Z,975.21
2023-02-16T06:42:24.789Z,975.22
2023-02-16T06:43:24.703Z,975.19
2023-02-16T06:44:24.659Z,975.15
2023-02-16T06:45:24.561Z,975.15
2023-02-16T06:46:24.597Z,975.18
2023-02-16T06:47:24.446Z,975.15
2023-02-16T06:48:24.424Z,975.15
2023-02-16T06:49:27.378Z,975.20
2023-02-16T06:50:24.295Z,975.22
2023-02-16T06:51:24.224Z,975.25
2023-02-16T06:52:24.145Z,975.24
2023-02-16T06:53:24.123Z,975.29
2023-02-16T06:54:24.014Z,975.26
2023-02-16T06:55:23.997Z,975.28
2023-02-16T06:56:23.905Z,975.25
2023-02-16T06:57:23.882Z,975.29
2023-02-16T06:58:23.761Z,975.27
2023-02-16T06:59:23.732Z,975.27
2023-02-16T07:00:23.741Z,975.23
2023-02-16T07:01:23.678Z,975.23
2023-02-16T07:02:23.535Z,975.22
2023-02-16T07:03:23.525Z,975.16
2023-02-16T07:04:23.413Z,975.12
2023-02-16T07:05:23.340Z,975.22
2023-02-16T07:06:23.292Z,975.20
2023-02-16T07:07:23.245Z,975.23
2023-02-16T07:08:23.157Z,975.21
2023-02-16T07:09:23.125Z,975.21
2023-02-16T07:10:23.045Z,975.14
2023-02-16T07:11:22.975Z,975.22
2023-02-16T07:12:22.884Z,975.17
2023-02-16T07:13:22.912Z,975.21
2023-02-16T07:14:22.764Z,975.35
2023-02-16T07:15:22.746Z,975.41
2023-02-16T07:16:22.758Z,975.36
2023-02-16T07:17:22.612Z,975.40
2023-02-16T07:18:22.563Z,975.41
2023-02-16T07:19:22.473Z,975.44
2023-02-16T07:20:22.453Z,975.39
2023-02-16T07:21:22.357Z,975.42
2023-02-16T07:22:22.276Z,975.41
2023-02-16T07:23:22.227Z,975.45
2023-02-16T07:24:22.158Z,975.51
2023-02-16T07:25:22.144Z,975.53
2023-02-16T07:26:22.087Z,975.57
2023-02-16T07:27:21.965Z,975.57
2023-02-16T07:28:21.956Z,975.54
2023-02-16T07:29:21.863Z,975.59
2023-02-16T07:30:21.814Z,975.60
2023-02-16T07:31:21.834Z,975.64
2023-02-16T07:32:21.705Z,975.78
2023-02-16T07:33:21.657Z,975.81
2023-02-16T07:34:22.126Z,975.88
2023-02-16T07:35:21.536Z,975.86
2023-02-16T07:36:21.465Z,975.85
2023-02-16T07:37:21.387Z,975.84
2023-02-16T07:38:21.327Z,975.88
2023-02-16T07:39:21.310Z,975.86
2023-02-16T07:40:21.257Z,975.90
2023-02-16T07:41:21.172Z,975.95
2023-02-16T07:42:21.142Z,975.93
2023-02-16T07:43:21.057Z,975.97
2023-02-16T07:44:20.973Z,976.00
2023-02-16T07:45:20.978Z,976.02
2023-02-16T07:46:20.879Z,976.07
2023-02-16T07:47:20.832Z,976.10
2023-02-16T07:48:20.776Z,976.11
2023-02-16T07:49:20.717Z,976.11
2023-02-16T07:50:20.683Z,976.13
2023-02-16T07:51:20.604Z,976.12
2023-02-16T07:52:20.534Z,976.07
2023-02-16T07:53:20.510Z,976.05
2023-02-16T07:54:20.435Z,976.10
2023-02-16T07:55:20.384Z,976.09
2023-02-16T07:56:20.323Z,976.13
2023-02-16T07:57:20.243Z,976.17
2023-02-16T07:58:20.232Z,976.23
2023-02-16T07:59:20.163Z,976.22
2023-02-16T08:00:20.092Z,976.15
2023-02-16T08:01:20.034Z,976.18
2023-02-16T08:02:20.132Z,976.22
2023-02-16T08:03:20.149Z,976.18
2023-02-16T08:04:19.923Z,976.20
2023-02-16T08:05:19.861Z,976.23
2023-02-16T08:06:19.855Z,976.21
2023-02-16T08:07:19.762Z,976.27
2023-02-16T08:08:19.707Z,976.27
2023-02-16T08:09:19.654Z,976.28
2023-02-16T08:10:19.613Z,976.27
2023-02-16T08:11:19.570Z,976.32
2023-02-16T08:12:19.488Z,976.27
2023-02-16T08:13:19.457Z,976.21
2023-02-16T08:14:19.417Z,976.29
2023-02-16T08:15:19.409Z,976.36
2023-02-16T08:16:19.328Z,976.37
2023-02-16T08:17:19.240Z,976.44
2023-02-16T08:18:19.252Z,976.44
2023-02-16T08:19:19.230Z,976.43
2023-02-16T08:20:19.078Z,976.44
2023-02-16T08:21:19.055Z,976.41
2023-02-16T08:22:19.010Z,976.42
2023-02-16T08:23:18.958Z,976.43
2023-02-16T08:24:18.936Z,976.46
2023-02-16T08:25:18.844Z,976.52
2023-02-16T08:26:18.847Z,976.50
2023-02-16T08:27:18.753Z,976.54
2023-02-16T08:28:18.710Z,976.49
2023-02-16T08:29:18.629Z,976.42
2023-02-16T08:30:18.673Z,976.42
2023-02-16T08:31:18.610Z,975.96
2023-02-16T08:32:18.602Z,976.47
2023-02-16T08:33:18.488Z,976.42
2023-02-16T08:34:18.437Z,976.36
2023-02-16T08:35:18.386Z,976.03
2023-02-16T08:36:18.321Z,976.43
2023-02-16T08:37:18.291Z,976.47
2023-02-16T08:38:18.265Z,976.19
2023-02-16T08:39:18.166Z,976.48
2023-02-16T08:40:18.130Z,976.43
2023-02-16T08:41:18.099Z,976.48
2023-02-16T08:42:18.067Z,976.47
2023-02-16T08:43:17.988Z,976.56
2023-02-16T08:44:18.074Z,976.52
2023-02-16T08:45:17.890Z,976.50
2023-02-16T08:46:17.959Z,976.49
2023-02-16T08:47:17.839Z,976.47
2023-02-16T08:48:17.802Z,976.20
2023-02-16T08:49:17.734Z,976.18
2023-02-16T08:50:17.672Z,976.13
2023-02-16T08:51:17.696Z,976.25
2023-02-16T08:52:17.590Z,976.22
2023-02-16T08:53:17.502Z,976.31
2023-02-16T08:54:17.446Z,976.52
2023-02-16T08:55:17.443Z,976.47
2023-02-16T08:56:17.396Z,976.51
2023-02-16T08:57:17.322Z,976.05
2023-02-16T08:58:17.282Z,976.31
2023-02-16T08:59:17.276Z,976.62
2023-02-16T09:00:17.204Z,976.17
2023-02-16T09:01:17.190Z,976.69
2023-02-16T09:02:17.139Z,976.23
2023-02-16T09:03:17.040Z,976.61
2023-02-16T09:04:16.974Z,976.51
2023-02-16T09:05:16.947Z,976.59
2023-02-16T09:06:16.910Z,976.50
2023-02-16T09:07:16.881Z,976.53
2023-02-16T09:08:16.824Z,976.53
2023-02-16T09:09:16.777Z,976.60
2023-02-16T09:10:16.721Z,976.64
2023-02-16T09:11:16.682Z,976.69
2023-02-16T09:12:16.617Z,976.59
2023-02-16T09:13:16.555Z,976.62
2023-02-16T09:14:16.508Z,976.64
2023-02-16T09:15:16.471Z,976.28
2023-02-16T09:16:16.505Z,976.22
2023-02-16T09:17:16.401Z,976.65
2023-02-16T09:18:16.345Z,976.61
2023-02-16T09:19:16.307Z,976.62
2023-02-16T09:20:16.251Z,976.27
2023-02-16T09:21:16.216Z,976.71
2023-02-16T09:22:16.146Z,976.51
2023-02-16T09:23:16.097Z,976.65
2023-02-16T09:24:16.293Z,976.66
2023-02-16T09:25:16.001Z,976.64
2023-02-16T09:26:16.043Z,976.82
2023-02-16T09:27:15.888Z,976.80
2023-02-16T09:28:15.850Z,976.78
2023-02-16T09:29:15.819Z,976.78
2023-02-16T09:30:15.853Z,976.70
2023-02-16T09:31:15.831Z,976.68
2023-02-16T09:32:15.718Z,976.64
2023-02-16T09:33:15.641Z,976.66
2023-02-16T09:34:15.591Z,976.65
2023-02-16T09:35:15.533Z,976.61
2023-02-16T09:36:15.538Z,976.72
2023-02-16T09:37:15.452Z,976.75
2023-02-16T09:38:15.409Z,976.75
2023-02-16T09:39:15.356Z,976.75
2023-02-16T09:40:15.297Z,976.74
2023-02-16T09:41:15.307Z,976.72
2023-02-16T09:42:15.252Z,976.75
2023-02-16T09:43:15.186Z,976.72
2023-02-16T09:44:15.144Z,976.71
2023-02-16T09:45:15.084Z,976.73
2023-02-16T09:46:15.070Z,976.72
2023-02-16T09:47:15.034Z,976.66
2023-02-16T09:48:14.989Z,976.57
2023-02-16T09:49:14.912Z,976.46
2023-02-16T09:50:14.924Z,976.44
2023-02-16T09:51:15.781Z,976.44
2023-02-16T09:52:14.771Z,976.43
2023-02-16T09:53:14.755Z,976.43
2023-02-16T09:54:14.677Z,976.41
2023-02-16T09:55:14.665Z,976.40
2023-02-16T09:56:14.676Z,976.28
2023-02-16T09:57:14.537Z,976.40
2023-02-16T09:58:14.608Z,976.33
2023-02-16T09:59:14.503Z,976.34
2023-02-16T10:00:14.442Z,976.34
2023-02-16T10:01:14.402Z,976.24
2023-02-16T10:02:14.386Z,976.26
2023-02-16T10:03:14.301Z,976.35
2023-02-16T10:04:14.243Z,976.30
2023-02-16T10:05:14.240Z,976.21
2023-02-16T10:06:14.172Z,976.29
2023-02-16T10:07:14.101Z,976.18
2023-02-16T10:08:14.056Z,976.39
2023-02-16T10:09:14.067Z,976.35
2023-02-16T10:10:13.984Z,976.32
2023-02-16T10:11:13.930Z,976.22
2023-02-16T10:12:13.895Z,976.36
2023-02-16T10:13:13.888Z,976.38
2023-02-16T10:14:13.764Z,976.34
2023-02-16T10:15:13.755Z,976.29
2023-02-16T10:16:13.782Z,976.18
2023-02-16T10:17:13.668Z,976.27
2023-02-16T10:18:13.590Z,976.33
2023-02-16T10:19:13.557Z,976.35
2023-02-16T10:20:13.541Z,976.30
2023-02-16T10:21:13.456Z,976.27
2023-02-16T10:22:13.429Z,976.27
2023-02-16T10:23:13.369Z,976.28
2023-02-16T10:24:13.356Z,976.29
2023-02-16T10:25:13.260Z,976.27
2023-02-16T10:26:13.331Z,976.30
2023-02-16T10:27:13.191Z,976.33
2023-02-16T10:28:13.124Z,976.34
2023-02-16T10:29:13.074Z,976.33
2023-02-16T10:30:13.079Z,976.33
2023-02-16T10:31:13.145Z,976.33
2023-02-16T10:32:12.976Z,976.33
2023-02-16T10:33:12.924Z,976.34
2023-02-16T10:34:12.855Z,976.33
2023-02-16T10:35:12.800Z,976.31
2023-02-16T10:36:12.758Z,976.35
2023-02-16T10:37:12.716Z,976.37
2023-02-16T10:38:12.659Z,976.41
2023-02-16T10:39:12.578Z,976.41
2023-02-16T10:40:12.547Z,976.36
2023-02-16T10:41:12.517Z,976.37
2023-02-16T10:42:12.502Z,976.34
2023-02-16T10:43:12.391Z,976.34
2023-02-16T10:44:12.387Z,976.33
2023-02-16T10:45:12.313Z,976.33
2023-02-16T10:46:12.285Z,976.31
2023-02-16T10:47:12.212Z,976.33
2023-02-16T10:48:12.171Z,976.36
2023-02-16T10:49:12.150Z,976.31
2023-02-16T10:50:12.072Z,976.36
2023-02-16T10:51:12.055Z,976.33
2023-02-16T10:52:11.985Z,976.33
2023-02-16T10:53:11.932Z,976.26
2023-02-16T10:54:11.909Z,976.25
2023-02-16T10:55:11.806Z,976.22
2023-02-16T10:56:11.805Z,976.24
2023-02-16T10:57:11.734Z,976.21
2023-02-16T10:58:11.653Z,976.22
2023-02-16T10:59:11.620Z,976.29
2023-02-16T11:00:11.579Z,976.27
2023-02-16T11:01:11.555Z,976.31
2023-02-16T11:02:20.966Z,976.31
2023-02-16T11:03:11.519Z,976.34
2023-02-16T11:04:11.405Z,976.31
2023-02-16T11:05:11.346Z,976.31
2023-02-16T11:06:11.293Z,976.28
2023-02-16T11:07:11.279Z,976.18
2023-02-16T11:08:11.202Z,976.25
2023-02-16T11:09:11.165Z,976.27
2023-02-16T11:10:11.088Z,976.19
2023-02-16T11:11:11.037Z,976.25
2023-02-16T11:12:10.980Z,976.11
2023-02-16T11:13:10.934Z,976.14
2023-02-16T11:14:10.894Z,976.12
2023-02-16T11:15:10.863Z,976.15
2023-02-16T11:16:10.838Z,976.03
2023-02-16T11:17:10.772Z,976.10
2023-02-16T11:18:10.666Z,976.05
2023-02-16T11:19:10.693Z,976.02
2023-02-16T11:20:10.571Z,976.03
2023-02-16T11:21:10.591Z,976.03
2023-02-16T11:22:10.468Z,976.01
2023-02-16T11:23:10.462Z,976.01
2023-02-16T11:24:10.384Z,975.98
2023-02-16T11:25:10.330Z,975.93
2023-02-16T11:26:10.309Z,975.89
2023-02-16T11:27:10.318Z,975.87
2023-02-16T11:28:10.173Z,975.79
2023-02-16T11:29:10.152Z,975.74
2023-02-16T11:30:10.105Z,975.67
2023-02-16T11:31:10.109Z,975.74
2023-02-16T11:32:10.012Z,975.74
2023-02-16T11:33:09.923Z,975.75
2023-02-16T11:34:09.869Z,975.66
2023-02-16T11:35:09.832Z,975.66
2023-02-16T11:36:09.764Z,975.65
2023-02-16T11:37:09.737Z,975.62
2023-02-16T11:38:09.676Z,975.72
2023-02-16T11:39:11.095Z,975.74
2023-02-16T11:40:09.542Z,975.75
2023-02-16T11:41:09.596Z,975.71
2023-02-16T11:42:09.555Z,975.75
2023-02-16T11:43:09.410Z,975.76
2023-02-16T11:44:09.352Z,975.74
2023-02-16T11:45:09.266Z,975.71
2023-02-16T11:46:09.262Z,975.71
2023-02-16T11:47:09.177Z,975.65
2023-02-16T11:48:09.120Z,975.64
2023-02-16T11:49:09.028Z,975.68
2023-02-16T11:50:08.985Z,975.61
2023-02-16T11:51:08.949Z,975.60
2023-02-16T11:52:08.888Z,975.62
2023-02-16T11:53:08.854Z,975.56
2023-02-16T11:54:08.773Z,975.54
2023-02-16T11:55:08.745Z,975.58
2023-02-16T11:56:08.697Z,975.58
2023-02-16T11:57:08.654Z,975.51
2023-02-16T11:58:08.571Z,975.50
2023-02-16T11:59:08.543Z,975.48
2023-02-16T12:00:08.478Z,975.44
2023-02-16T12:01:08.462Z,975.47
2023-02-16T12:02:08.431Z,975.42
2023-02-16T12:03:08.336Z,975.45
2023-02-16T12:04:08.342Z,975.47
2023-02-16T12:05:08.290Z,975.45
2023-02-16T12:06:08.223Z,975.46
2023-02-16T12:07:08.107Z,975.44
2023-02-16T12:08:08.056Z,975.40
2023-02-16T12:09:07.989Z,975.42
2023-02-16T12:10:07.976Z,975.43
2023-02-16T12:11:07.924Z,975.45
2023-02-16T12:12:07.844Z,975.40
2023-02-16T12:13:07.767Z,975.41
2023-02-16T12:14:07.751Z,975.38
2023-02-16T12:15:07.685Z,975.37
2023-02-16T12:16:08.963Z,975.35
2023-02-16T12:17:07.595Z,975.37
2023-02-16T12:18:07.518Z,975.41
2023-02-16T12:19:07.481Z,975.32
2023-02-16T12:20:07.475Z,975.28
2023-02-16T12:21:07.368Z,975.39
2023-02-16T12:22:07.323Z,975.34
2023-02-16T12:23:07.264Z,975.28
2023-02-16T12:24:07.225Z,975.23
2023-02-16T12:25:07.186Z,975.27
2023-02-16T12:26:07.267Z,975.21
2023-02-16T12:27:07.075Z,975.23
2023-02-16T12:28:07.018Z,975.24